Time;durP1;ratioP1;P1;durP2;ratioP2;P2;SDS_P1;SDS_P2;PMS_P1;PMS_P2;Temp;Humidity;BMP_temperature;BMP_pressure;BME280_temperature;BME280_humidity;BME280_pressure;Samples;Min_cycle;Max_cycle;Signal;HPM_P1;HPM_P2
2023/04/20 00:02:15;;;;;;;8.43;5.70;;;;;;;;;;5052032;28;20453;-77
2023/04/20 00:04:42;;;;;;;6.70;5.97;;;;;;;;;;5051492;28;20458;-76
2023/04/20 00:07:10;;;;;;;6.87;6.17;;;;;;;;;;5051875;28;20450;-76
2023/04/20 00:09:37;;;;;;;5.57;5.10;;;;;;;;;;5051483;28;20479;-77
2023/04/20 00:12:06;;;;;;;5.77;5.27;;;;;;;;;;5051684;28;20426;-76
2023/04/20 00:14:36;;;;;;;5.90;5.40;;;;;;;;;;5051158;28;20445;-77
2023/04/20 00:17:04;;;;;;;6.20;5.70;;;;;;;;;;5051628;28;20519;-76
2023/04/20 00:19:32;;;;;;;5.93;5.43;;;;;;;;;;5052149;28;20442;-77
2023/04/20 00:22:00;;;;;;;6.03;5.50;;;;;;;;;;5052020;28;20457;-76
2023/04/20 00:24:27;;;;;;;6.57;5.97;;;;;;;;;;5051980;28;20464;-80
2023/04/20 00:26:55;;;;;;;6.70;6.13;;;;;;;;;;5052321;28;20464;-77
2023/04/20 00:29:24;;;;;;;6.60;5.93;;;;;;;;;;5051934;28;21134;-77
2023/04/20 00:31:51;;;;;;;6.83;6.23;;;;;;;;;;5052037;28;20526;-77
2023/04/20 00:34:19;;;;;;;6.43;5.83;;;;;;;;;;5051750;28;20453;-76
2023/04/20 00:36:46;;;;;;;6.60;6.00;;;;;;;;;;5051927;28;20841;-76
2023/04/20 00:39:14;;;;;;;6.17;5.57;;;;;;;;;;5052405;28;20525;-77
2023/04/20 00:41:41;;;;;;;6.97;6.27;;;;;;;;;;5052508;28;20469;-76
2023/04/20 00:44:12;;;;;;;6.57;6.07;;;;;;;;;;5053249;28;20445;-76
2023/04/20 00:46:41;;;;;;;6.23;5.63;;;;;;;;;;5055591;28;20854;-74
2023/04/20 00:49:09;;;;;;;5.97;5.53;;;;;;;;;;5060843;28;20503;-76
2023/04/20 00:51:39;;;;;;;6.53;5.97;;;;;;;;;;5057815;28;20477;-75
2023/04/20 00:54:10;;;;;;;6.93;6.33;;;;;;;;;;5057192;28;20457;-77
2023/04/20 00:56:40;;;;;;;6.00;5.50;;;;;;;;;;5055030;28;20477;-76
2023/04/20 00:59:08;;;;;;;6.57;5.80;;;;;;;;;;5056569;28;20434;-76
2023/04/20 01:01:36;;;;;;;6.17;5.57;;;;;;;;;;5056696;28;20836;-76
2023/04/20 01:04:06;;;;;;;6.40;5.73;;;;;;;;;;5056691;28;20508;-76
2023/04/20 01:06:33;;;;;;;6.57;5.97;;;;;;;;;;5056427;28;20803;-76
2023/04/20 01:09:02;;;;;;;6.87;6.03;;;;;;;;;;5057499;28;20959;-76
2023/04/20 01:11:29;;;;;;;6.20;5.70;;;;;;;;;;5057413;28;20485;-76
2023/04/20 01:13:56;;;;;;;6.30;5.70;;;;;;;;;;5054357;28;20453;-77
2023/04/20 01:16:23;;;;;;;6.23;5.73;;;;;;;;;;5050285;28;20480;-76
2023/04/20 01:18:51;;;;;;;7.07;5.83;;;;;;;;;;5050693;28;20461;-76
2023/04/20 01:21:23;;;;;;;7.70;6.30;;;;;;;;;;5050625;28;20530;-75
2023/04/20 01:23:52;;;;;;;6.97;6.37;;;;;;;;;;5050553;28;20468;-76
2023/04/20 01:26:23;;;;;;;7.43;6.73;;;;;;;;;;5050613;28;21299;-76
2023/04/20 01:28:50;;;;;;;6.73;6.13;;;;;;;;;;5051042;28;20951;-76
2023/04/20 01:31:18;;;;;;;7.20;6.50;;;;;;;;;;5050565;28;20466;-75
2023/04/20 01:33:45;;;;;;;6.00;5.47;;;;;;;;;;5050387;28;20480;-76
2023/04/20 01:36:12;;;;;;;7.33;6.73;;;;;;;;;;5051083;28;20430;-76
2023/04/20 01:38:40;;;;;;;7.27;6.57;;;;;;;;;;5051107;28;20449;-76
2023/04/20 01:41:10;;;;;;;7.30;6.70;;;;;;;;;;5051187;28;20434;-76
2023/04/20 01:43:38;;;;;;;7.67;6.87;;;;;;;;;;5050197;28;20827;-75
2023/04/20 01:46:05;;;;;;;7.93;7.23;;;;;;;;;;5050494;28;20456;-76
2023/04/20 01:48:33;;;;;;;7.07;6.47;;;;;;;;;;5050920;28;20462;-76
2023/04/20 01:51:00;;;;;;;6.77;6.10;;;;;;;;;;5049809;28;20580;-77
2023/04/20 01:53:28;;;;;;;7.47;6.77;;;;;;;;;;5048102;28;20842;-75
2023/04/20 01:55:56;;;;;;;7.40;6.70;;;;;;;;;;5048941;28;20935;-76
2023/04/20 01:58:28;;;;;;;7.40;6.67;;;;;;;;;;5050489;28;20473;-77
2023/04/20 02:00:56;;;;;;;8.50;7.63;;;;;;;;;;5052419;28;20446;-75
2023/04/20 02:03:24;;;;;;;7.77;7.07;;;;;;;;;;5052016;28;20541;-75
2023/04/20 02:05:51;;;;;;;6.87;6.37;;;;;;;;;;5051702;28;21065;-75
2023/04/20 02:08:23;;;;;;;8.30;7.50;;;;;;;;;;5051662;28;20460;-75
2023/04/20 02:10:50;;;;;;;9.10;7.20;;;;;;;;;;5051484;28;20843;-76
2023/04/20 02:13:18;;;;;;;7.13;6.53;;;;;;;;;;5052740;28;20469;-77
2023/04/20 02:15:46;;;;;;;7.00;6.40;;;;;;;;;;5051748;28;20996;-77
2023/04/20 02:18:14;;;;;;;8.13;6.47;;;;;;;;;;5051903;28;20476;-77
2023/04/20 02:20:42;;;;;;;8.07;6.90;;;;;;;;;;5052146;28;20484;-76
2023/04/20 02:23:09;;;;;;;7.43;6.73;;;;;;;;;;5051279;28;20957;-75
2023/04/20 02:25:37;;;;;;;9.43;6.63;;;;;;;;;;5051093;28;20897;-75
2023/04/20 02:28:05;;;;;;;7.43;6.73;;;;;;;;;;5051263;28;20484;-76
2023/04/20 02:30:32;;;;;;;7.20;6.60;;;;;;;;;;5051420;28;20455;-75
2023/04/20 02:33:04;;;;;;;7.67;6.90;;;;;;;;;;5051136;28;20485;-75
2023/04/20 02:35:32;;;;;;;7.67;6.97;;;;;;;;;;5051696;28;20747;-75
2023/04/20 02:37:59;;;;;;;8.20;7.50;;;;;;;;;;5051160;28;20923;-76
2023/04/20 02:40:27;;;;;;;8.43;7.70;;;;;;;;;;5051289;28;20549;-76
2023/04/20 02:42:54;;;;;;;8.53;7.03;;;;;;;;;;5051597;28;20800;-75
2023/04/20 02:45:22;;;;;;;8.13;7.33;;;;;;;;;;5051537;28;21012;-74
2023/04/20 02:47:52;;;;;;;7.50;6.80;;;;;;;;;;5050693;28;20462;-75
2023/04/20 02:50:21;;;;;;;7.37;6.67;;;;;;;;;;5052325;28;20470;-76
2023/04/20 02:52:49;;;;;;;7.57;6.87;;;;;;;;;;5053872;28;20495;-75
2023/04/20 02:55:16;;;;;;;8.53;7.83;;;;;;;;;;5053887;28;20820;-76
2023/04/20 02:57:44;;;;;;;7.90;7.20;;;;;;;;;;5054939;28;20462;-76
2023/04/20 03:00:13;;;;;;;8.30;7.60;;;;;;;;;;5054552;28;20805;-76
2023/04/20 03:02:41;;;;;;;11.80;7.13;;;;;;;;;;5053554;28;20533;-76
2023/04/20 03:05:08;;;;;;;7.90;7.20;;;;;;;;;;5053452;28;20468;-76
2023/04/20 03:07:37;;;;;;;8.57;7.80;;;;;;;;;;5053233;28;20491;-76
2023/04/20 03:10:06;;;;;;;8.63;7.50;;;;;;;;;;5053206;28;20553;-76
2023/04/20 03:12:34;;;;;;;8.23;7.53;;;;;;;;;;5053277;28;20564;-76
2023/04/20 03:15:03;;;;;;;10.37;9.07;;;;;;;;;;5053486;28;20454;-75
2023/04/20 03:17:31;;;;;;;9.37;8.43;;;;;;;;;;5052997;28;20446;-75
2023/04/20 03:19:58;;;;;;;9.37;7.70;;;;;;;;;;5053400;28;20549;-76
2023/04/20 03:22:26;;;;;;;7.40;6.80;;;;;;;;;;5053797;28;20530;-75
2023/04/20 03:24:56;;;;;;;11.57;8.00;;;;;;;;;;5053412;28;20450;-76
2023/04/20 03:27:23;;;;;;;8.23;7.50;;;;;;;;;;5053011;28;20488;-76
2023/04/20 03:29:51;;;;;;;10.67;8.00;;;;;;;;;;5052229;28;20437;-77
2023/04/20 03:32:19;;;;;;;8.00;7.40;;;;;;;;;;5051638;28;20477;-76
2023/04/20 03:34:46;;;;;;;9.90;9.00;;;;;;;;;;5051933;28;20972;-76
2023/04/20 03:37:15;;;;;;;10.07;9.10;;;;;;;;;;5052047;28;20520;-77
2023/04/20 03:39:43;;;;;;;10.10;9.20;;;;;;;;;;5052822;28;20866;-77
2023/04/20 03:42:12;;;;;;;9.47;8.57;;;;;;;;;;5052389;28;20464;-76
2023/04/20 03:44:40;;;;;;;8.90;8.00;;;;;;;;;;5052705;28;20865;-76
2023/04/20 03:47:09;;;;;;;9.10;8.40;;;;;;;;;;5052270;28;20493;-75
2023/04/20 03:49:36;;;;;;;9.50;8.70;;;;;;;;;;5052670;28;20520;-76
2023/04/20 03:52:04;;;;;;;10.17;9.10;;;;;;;;;;5053123;28;20485;-76
2023/04/20 03:54:32;;;;;;;9.63;8.73;;;;;;;;;;5052257;28;21020;-76
2023/04/20 03:56:59;;;;;;;10.20;8.43;;;;;;;;;;5052439;28;20474;-76
2023/04/20 03:59:28;;;;;;;13.00;11.80;;;;;;;;;;5052164;28;20954;-76
2023/04/20 04:01:56;;;;;;;11.23;10.20;;;;;;;;;;5053564;28;20468;-76
2023/04/20 04:04:23;;;;;;;10.13;9.17;;;;;;;;;;5057579;28;20446;-75
2023/04/20 04:06:51;;;;;;;10.23;9.30;;;;;;;;;;5057354;28;20480;-76
2023/04/20 04:09:18;;;;;;;8.93;8.10;;;;;;;;;;5052280;28;20452;-75
2023/04/20 04:11:49;;;;;;;10.80;9.70;;;;;;;;;;5052225;28;20481;-75
2023/04/20 04:14:16;;;;;;;10.53;9.53;;;;;;;;;;5051906;28;20532;-75
2023/04/20 04:16:46;;;;;;;11.20;9.77;;;;;;;;;;5051981;28;20474;-75
2023/04/20 04:19:13;;;;;;;9.70;8.70;;;;;;;;;;5052280;28;20487;-76
2023/04/20 04:21:41;;;;;;;10.77;9.77;;;;;;;;;;5051844;28;20532;-76
2023/04/20 04:24:09;;;;;;;10.23;9.33;;;;;;;;;;5052185;28;20574;-76
2023/04/20 04:26:37;;;;;;;11.43;8.60;;;;;;;;;;5052734;28;20857;-77
2023/04/20 04:29:05;;;;;;;11.43;9.33;;;;;;;;;;5051869;28;20955;-77
2023/04/20 04:31:33;;;;;;;10.07;9.17;;;;;;;;;;5053524;28;20587;-76
2023/04/20 04:34:03;;;;;;;10.00;9.10;;;;;;;;;;5053345;28;21263;-78
2023/04/20 04:36:31;;;;;;;9.73;8.80;;;;;;;;;;5053199;28;20862;-77
2023/04/20 04:38:58;;;;;;;9.57;8.70;;;;;;;;;;5052970;28;20437;-76
2023/04/20 04:41:29;;;;;;;10.57;8.80;;;;;;;;;;5054828;28;20511;-77
2023/04/20 04:43:58;;;;;;;9.90;9.00;;;;;;;;;;5053523;28;20944;-77
2023/04/20 04:46:26;;;;;;;10.00;9.00;;;;;;;;;;5053096;28;20458;-75
2023/04/20 04:48:55;;;;;;;13.97;8.97;;;;;;;;;;5053265;28;20511;-76
2023/04/20 04:51:25;;;;;;;11.20;9.40;;;;;;;;;;5052656;28;20564;-76
2023/04/20 04:53:53;;;;;;;9.77;8.97;;;;;;;;;;5052817;28;20434;-76
2023/04/20 04:56:20;;;;;;;9.80;8.97;;;;;;;;;;5053280;28;20915;-77
2023/04/20 04:58:48;;;;;;;10.70;9.67;;;;;;;;;;5053481;28;20803;-76
2023/04/20 05:01:15;;;;;;;10.60;9.60;;;;;;;;;;5052975;28;21005;-77
2023/04/20 05:03:43;;;;;;;12.50;11.40;;;;;;;;;;5053701;28;20528;-78
2023/04/20 05:06:11;;;;;;;14.13;12.73;;;;;;;;;;5053312;28;20529;-77
2023/04/20 05:08:40;;;;;;;12.90;11.50;;;;;;;;;;5051398;28;20449;-76
2023/04/20 05:11:07;;;;;;;12.40;11.10;;;;;;;;;;5051365;28;20809;-77
2023/04/20 05:13:35;;;;;;;13.97;12.37;;;;;;;;;;5050928;28;20460;-76
2023/04/20 05:16:02;;;;;;;15.73;10.87;;;;;;;;;;5051546;28;20854;-77
2023/04/20 05:18:30;;;;;;;11.23;10.33;;;;;;;;;;5051530;28;20465;-76
2023/04/20 05:20:58;;;;;;;11.30;10.30;;;;;;;;;;5051805;28;20788;-78
2023/04/20 05:23:25;;;;;;;12.30;11.10;;;;;;;;;;5051732;28;20465;-77
2023/04/20 05:25:55;;;;;;;12.40;11.30;;;;;;;;;;5051862;28;20825;-77
2023/04/20 05:28:22;;;;;;;13.30;11.90;;;;;;;;;;5051623;28;20556;-78
2023/04/20 05:30:54;;;;;;;14.33;12.80;;;;;;;;;;5052974;28;20858;-78
2023/04/20 05:33:21;;;;;;;11.30;10.30;;;;;;;;;;5055097;28;20474;-77
2023/04/20 05:35:50;;;;;;;11.43;10.33;;;;;;;;;;5055969;28;20449;-76
2023/04/20 05:38:17;;;;;;;12.30;11.20;;;;;;;;;;5055951;28;20911;-76
2023/04/20 05:40:45;;;;;;;12.13;11.00;;;;;;;;;;5056620;28;20429;-76
2023/04/20 05:43:16;;;;;;;11.73;10.63;;;;;;;;;;5055545;28;20446;-77
2023/04/20 05:45:43;;;;;;;10.70;9.80;;;;;;;;;;5054934;28;20430;-77
2023/04/20 05:48:11;;;;;;;11.50;10.37;;;;;;;;;;5054491;28;20484;-75
2023/04/20 05:50:38;;;;;;;11.87;10.67;;;;;;;;;;5055280;28;20449;-77
2023/04/20 05:53:05;;;;;;;10.27;9.37;;;;;;;;;;5055796;28;20580;-78
2023/04/20 05:55:33;;;;;;;10.00;9.10;;;;;;;;;;5055059;28;20449;-77
2023/04/20 05:58:01;;;;;;;11.23;10.20;;;;;;;;;;5054600;28;20489;-76
2023/04/20 06:00:30;;;;;;;11.63;10.53;;;;;;;;;;5055933;28;20457;-78
2023/04/20 06:02:58;;;;;;;9.97;9.10;;;;;;;;;;5055788;28;20530;-78
2023/04/20 06:05:25;;;;;;;10.43;9.33;;;;;;;;;;5056259;28;20488;-76
2023/04/20 06:07:53;;;;;;;10.07;9.03;;;;;;;;;;5056268;28;20470;-76
2023/04/20 06:10:20;;;;;;;10.60;9.60;;;;;;;;;;5056059;28;20548;-77
2023/04/20 06:12:47;;;;;;;11.23;9.90;;;;;;;;;;5056760;28;20564;-79
2023/04/20 06:15:15;;;;;;;11.33;10.23;;;;;;;;;;5061279;28;20445;-78
2023/04/20 06:17:44;;;;;;;12.90;10.20;;;;;;;;;;5061983;28;20453;-78
2023/04/20 06:20:12;;;;;;;18.67;10.63;;;;;;;;;;5065089;28;20501;-77
2023/04/20 06:22:43;;;;;;;11.60;9.27;;;;;;;;;;5064298;28;20476;-77
2023/04/20 06:25:11;;;;;;;9.90;9.00;;;;;;;;;;5064905;28;20477;-77
2023/04/20 06:27:38;;;;;;;10.27;9.27;;;;;;;;;;5061508;28;20507;-77
2023/04/20 06:30:06;;;;;;;12.13;9.07;;;;;;;;;;5061164;28;20476;-77
2023/04/20 06:32:34;;;;;;;12.33;9.90;;;;;;;;;;5059631;28;20471;-78
2023/04/20 06:35:04;;;;;;;10.03;8.90;;;;;;;;;;5059639;28;20548;-77
2023/04/20 06:37:33;;;;;;;10.27;9.27;;;;;;;;;;5058894;28;20496;-77
2023/04/20 06:40:00;;;;;;;14.03;10.33;;;;;;;;;;5059102;28;20460;-78
2023/04/20 06:42:27;;;;;;;10.47;9.47;;;;;;;;;;5059841;28;20523;-76
2023/04/20 06:44:56;;;;;;;9.27;8.47;;;;;;;;;;5061108;28;20453;-77
2023/04/20 06:47:30;;;;;;;11.00;9.90;;;;;;;;;;5064588;28;20450;-78
2023/04/20 06:49:57;;;;;;;10.90;9.80;;;;;;;;;;5064912;28;20453;-80
2023/04/20 06:52:26;;;;;;;10.83;9.73;;;;;;;;;;5064429;28;20912;-78
2023/04/20 06:54:54;;;;;;;11.37;10.30;;;;;;;;;;5063463;28;20446;-76
2023/04/20 06:57:22;;;;;;;10.67;9.77;;;;;;;;;;5062161;28;20952;-78
2023/04/20 06:59:49;;;;;;;11.20;10.23;;;;;;;;;;5058405;28;20525;-78
2023/04/20 07:02:17;;;;;;;10.93;10.00;;;;;;;;;;5055947;28;20449;-78
2023/04/20 07:04:44;;;;;;;10.03;9.13;;;;;;;;;;5055655;28;20560;-79
2023/04/20 07:07:12;;;;;;;10.50;9.50;;;;;;;;;;5055513;28;20539;-78
2023/04/20 07:09:41;;;;;;;10.90;9.90;;;;;;;;;;5055925;28;20453;-80
2023/04/20 07:12:10;;;;;;;11.23;10.13;;;;;;;;;;5053614;28;20485;-78
2023/04/20 07:14:37;;;;;;;10.87;9.87;;;;;;;;;;5053451;28;20557;-78
2023/04/20 07:17:05;;;;;;;11.80;9.87;;;;;;;;;;5052938;28;20450;-78
2023/04/20 07:19:33;;;;;;;12.57;10.87;;;;;;;;;;5053104;28;21125;-78
2023/04/20 07:22:02;;;;;;;10.50;9.40;;;;;;;;;;5052687;28;20472;-77
2023/04/20 07:24:30;;;;;;;11.20;10.13;;;;;;;;;;5052823;28;20481;-79
2023/04/20 07:26:59;;;;;;;12.50;10.10;;;;;;;;;;5052814;28;20465;-77
2023/04/20 07:29:27;;;;;;;10.87;9.80;;;;;;;;;;5053457;28;20453;-78
2023/04/20 07:31:55;;;;;;;11.70;10.60;;;;;;;;;;5053846;28;20453;-79
2023/04/20 07:34:22;;;;;;;10.97;9.97;;;;;;;;;;5053370;28;20442;-80
2023/04/20 07:36:50;;;;;;;10.83;9.90;;;;;;;;;;5054141;28;20501;-79
2023/04/20 07:39:17;;;;;;;11.83;10.80;;;;;;;;;;5053452;28;20473;-79
2023/04/20 07:41:45;;;;;;;11.40;10.10;;;;;;;;;;5053563;28;20473;-78
2023/04/20 07:44:15;;;;;;;11.57;10.40;;;;;;;;;;5052533;28;20645;-78
2023/04/20 07:46:42;;;;;;;12.37;11.17;;;;;;;;;;5052400;28;20472;-77
2023/04/20 07:49:09;;;;;;;12.90;11.10;;;;;;;;;;5051645;28;20467;-78
2023/04/20 07:51:37;;;;;;;11.60;10.50;;;;;;;;;;5051897;28;20793;-78
2023/04/20 07:54:04;;;;;;;11.70;10.60;;;;;;;;;;5051428;28;20481;-79
2023/04/20 07:56:32;;;;;;;10.77;9.80;;;;;;;;;;5051091;28;20846;-77
2023/04/20 07:59:02;;;;;;;11.53;10.33;;;;;;;;;;5052840;28;20872;-78
2023/04/20 08:01:31;;;;;;;11.10;10.10;;;;;;;;;;5053674;28;20454;-77
2023/04/20 08:03:58;;;;;;;11.30;10.20;;;;;;;;;;5053009;28;20464;-77
2023/04/20 08:06:26;;;;;;;11.07;9.97;;;;;;;;;;5053243;28;20450;-78
2023/04/20 08:08:54;;;;;;;12.50;10.77;;;;;;;;;;5054423;28;20457;-78
2023/04/20 08:11:23;;;;;;;10.43;9.53;;;;;;;;;;5054715;28;20457;-77
2023/04/20 08:13:50;;;;;;;11.70;10.70;;;;;;;;;;5054923;28;20510;-77
2023/04/20 08:16:18;;;;;;;13.50;10.33;;;;;;;;;;5052857;28;20830;-77
2023/04/20 08:18:47;;;;;;;14.40;11.33;;;;;;;;;;5052221;28;20901;-76
2023/04/20 08:21:14;;;;;;;11.00;10.03;;;;;;;;;;5053154;28;20511;-78
2023/04/20 08:23:42;;;;;;;11.83;10.63;;;;;;;;;;5057843;28;20438;-78
2023/04/20 08:26:10;;;;;;;11.93;9.47;;;;;;;;;;5054918;28;20877;-77
2023/04/20 08:28:37;;;;;;;10.60;9.60;;;;;;;;;;5053041;28;20432;-78
2023/04/20 08:31:04;;;;;;;10.03;9.20;;;;;;;;;;5053465;28;20450;-77
2023/04/20 08:33:31;;;;;;;11.03;9.93;;;;;;;;;;5052397;28;20481;-77
2023/04/20 08:36:00;;;;;;;10.80;9.80;;;;;;;;;;5053301;28;20464;-77
2023/04/20 08:38:27;;;;;;;9.83;8.90;;;;;;;;;;5053247;28;20466;-78
2023/04/20 08:40:55;;;;;;;10.07;9.17;;;;;;;;;;5054082;28;20454;-77
2023/04/20 08:43:22;;;;;;;10.43;9.43;;;;;;;;;;5055179;28;20509;-76
2023/04/20 08:45:50;;;;;;;12.23;10.90;;;;;;;;;;5053856;28;20434;-78
2023/04/20 08:48:18;;;;;;;10.80;9.90;;;;;;;;;;5054464;28;20477;-76
2023/04/20 08:50:45;;;;;;;15.43;10.03;;;;;;;;;;5055206;28;20441;-77
2023/04/20 08:53:14;;;;;;;12.00;10.77;;;;;;;;;;5054012;28;20481;-76
2023/04/20 08:55:41;;;;;;;11.57;10.40;;;;;;;;;;5055464;28;20459;-77
2023/04/20 08:58:09;;;;;;;12.20;10.37;;;;;;;;;;5052528;28;20468;-77
2023/04/20 09:00:46;;;;;;;14.93;10.43;;;;;;;;;;5052802;28;20450;-77
2023/04/20 09:03:13;;;;;;;11.37;10.23;;;;;;;;;;5052403;28;20444;-77
2023/04/20 09:05:40;;;;;;;12.57;10.07;;;;;;;;;;5052499;28;20449;-76
2023/04/20 09:08:09;;;;;;;10.90;10.00;;;;;;;;;;5056350;28;20489;-78
2023/04/20 09:10:42;;;;;;;11.77;10.70;;;;;;;;;;5056587;28;20452;-77
2023/04/20 09:13:10;;;;;;;11.03;9.93;;;;;;;;;;5056112;28;20487;-77
2023/04/20 09:15:37;;;;;;;10.50;9.50;;;;;;;;;;5058960;28;20441;-77
2023/04/20 09:18:16;;;;;;;10.70;9.70;;;;;;;;;;5060652;28;20858;-76
2023/04/20 09:20:45;;;;;;;11.10;10.00;;;;;;;;;;5059643;28;20453;-78
2023/04/20 09:23:12;;;;;;;11.20;10.03;;;;;;;;;;5061199;28;20466;-76
2023/04/20 09:25:42;;;;;;;12.17;10.97;;;;;;;;;;5064371;28;20450;-78
2023/04/20 09:28:12;;;;;;;11.83;10.03;;;;;;;;;;5064860;28;20469;-77
2023/04/20 09:30:39;;;;;;;10.90;9.90;;;;;;;;;;5064454;28;20457;-78
2023/04/20 09:33:09;;;;;;;10.47;9.43;;;;;;;;;;5063361;28;20481;-77
2023/04/20 09:35:37;;;;;;;11.20;10.10;;;;;;;;;;5062330;28;20942;-77
2023/04/20 09:38:04;;;;;;;10.50;9.70;;;;;;;;;;5059381;28;20458;-77
2023/04/20 09:40:33;;;;;;;11.70;10.50;;;;;;;;;;5057695;28;20453;-78
2023/04/20 09:43:04;;;;;;;11.00;9.77;;;;;;;;;;5056292;28;20541;-77
2023/04/20 09:45:32;;;;;;;10.60;9.73;;;;;;;;;;5055841;28;20821;-77
2023/04/20 09:48:00;;;;;;;11.00;10.00;;;;;;;;;;5055784;28;21079;-76
2023/04/20 09:50:27;;;;;;;11.20;9.37;;;;;;;;;;5057856;28;20449;-76
2023/04/20 09:52:55;;;;;;;10.70;9.60;;;;;;;;;;5059802;28;20450;-78
2023/04/20 09:55:22;;;;;;;11.23;10.03;;;;;;;;;;5059671;28;20492;-79
2023/04/20 09:57:50;;;;;;;11.20;10.00;;;;;;;;;;5058463;28;20547;-76
2023/04/20 10:00:18;;;;;;;10.70;9.70;;;;;;;;;;5056130;28;20524;-79
2023/04/20 10:02:48;;;;;;;12.63;11.43;;;;;;;;;;5055629;28;20513;-79
2023/04/20 10:05:16;;;;;;;11.37;10.27;;;;;;;;;;5055967;28;20429;-77
2023/04/20 10:07:43;;;;;;;11.40;10.40;;;;;;;;;;5055608;28;20507;-78
2023/04/20 10:10:12;;;;;;;11.33;10.27;;;;;;;;;;5055988;28;20456;-80
2023/04/20 10:12:48;;;;;;;11.87;10.77;;;;;;;;;;5055709;28;20445;-77
2023/04/20 10:15:16;;;;;;;11.50;10.40;;;;;;;;;;5055524;28;20813;-80
2023/04/20 10:17:44;;;;;;;12.03;10.83;;;;;;;;;;5054901;28;20567;-77
2023/04/20 10:20:23;;;;;;;11.33;10.20;;;;;;;;;;5054937;28;20542;-76
2023/04/20 10:22:52;;;;;;;10.63;9.60;;;;;;;;;;5055375;28;20530;-77
2023/04/20 10:25:20;;;;;;;11.17;10.17;;;;;;;;;;5055147;28;20476;-77
2023/04/20 10:27:54;;;;;;;11.77;10.50;;;;;;;;;;5055504;28;20504;-78
2023/04/20 10:30:22;;;;;;;10.70;9.70;;;;;;;;;;5055499;28;20426;-78
2023/04/20 10:33:03;;;;;;;12.17;10.97;;;;;;;;;;5054579;28;20422;-76
2023/04/20 10:35:41;;;;;;;16.87;15.27;;;;;;;;;;5055219;28;20453;-79
2023/04/20 10:38:10;;;;;;;12.50;11.30;;;;;;;;;;5056129;28;20469;-79
2023/04/20 10:40:37;;;;;;;14.00;12.80;;;;;;;;;;5055857;28;20802;-78
2023/04/20 10:43:05;;;;;;;15.63;14.10;;;;;;;;;;5054954;28;20549;-78
2023/04/20 10:45:35;;;;;;;13.77;12.47;;;;;;;;;;5054316;28;20453;-79
2023/04/20 10:48:07;;;;;;;12.50;11.30;;;;;;;;;;5053944;28;20546;-78
2023/04/20 10:50:36;;;;;;;11.07;10.17;;;;;;;;;;5054135;28;20454;-77
2023/04/20 10:53:04;;;;;;;12.90;11.70;;;;;;;;;;5054338;28;20461;-77
2023/04/20 10:55:33;;;;;;;11.80;10.70;;;;;;;;;;5056873;28;20591;-79
2023/04/20 10:58:03;;;;;;;10.23;9.33;;;;;;;;;;5054222;28;20501;-76
2023/04/20 11:00:31;;;;;;;11.30;10.40;;;;;;;;;;5057501;28;20454;-76
2023/04/20 11:03:00;;;;;;;12.37;11.07;;;;;;;;;;5057425;28;20450;-78
2023/04/20 11:05:29;;;;;;;10.63;9.50;;;;;;;;;;5058549;28;20515;-79
2023/04/20 11:08:02;;;;;;;10.33;9.30;;;;;;;;;;5058651;28;20560;-75
2023/04/20 11:10:38;;;;;;;9.07;8.40;;;;;;;;;;5056603;28;20859;-78
2023/04/20 11:13:08;;;;;;;10.17;9.23;;;;;;;;;;5056132;28;20469;-78
2023/04/20 11:15:36;;;;;;;9.87;9.03;;;;;;;;;;5056587;28;20943;-79
2023/04/20 11:18:08;;;;;;;9.73;8.90;;;;;;;;;;5056655;28;20481;-77
2023/04/20 11:20:36;;;;;;;10.60;9.67;;;;;;;;;;5055480;28;20461;-77
2023/04/20 11:23:07;;;;;;;9.53;8.40;;;;;;;;;;5054805;28;20582;-76
2023/04/20 11:25:35;;;;;;;9.77;8.97;;;;;;;;;;5055774;28;20545;-77
2023/04/20 11:28:12;;;;;;;10.77;9.87;;;;;;;;;;5055925;28;20499;-79
2023/04/20 11:30:44;;;;;;;10.37;9.43;;;;;;;;;;5057488;28;20450;-77
2023/04/20 11:33:12;;;;;;;9.97;9.07;;;;;;;;;;5056978;28;20943;-76
2023/04/20 11:35:41;;;;;;;11.07;10.07;;;;;;;;;;5053769;28;20457;-77
2023/04/20 11:38:09;;;;;;;11.20;10.17;;;;;;;;;;5052302;28;20500;-76
2023/04/20 11:40:37;;;;;;;11.00;10.00;;;;;;;;;;5052707;28;20963;-78
2023/04/20 11:43:05;;;;;;;10.80;9.80;;;;;;;;;;5052319;28;20465;-77
2023/04/20 11:45:33;;;;;;;11.60;10.50;;;;;;;;;;5052398;28;20882;-78
2023/04/20 11:48:01;;;;;;;11.47;10.37;;;;;;;;;;5052528;28;20667;-77
2023/04/20 11:50:29;;;;;;;11.10;10.10;;;;;;;;;;5052513;28;20997;-78
2023/04/20 11:52:57;;;;;;;13.37;12.00;;;;;;;;;;5052218;28;20456;-77
2023/04/20 11:55:26;;;;;;;12.17;11.03;;;;;;;;;;5052403;28;20536;-79
2023/04/20 11:57:55;;;;;;;12.60;11.50;;;;;;;;;;5052621;28;20470;-77
2023/04/20 12:00:36;;;;;;;12.80;11.70;;;;;;;;;;5052121;28;20968;-77
2023/04/20 12:03:04;;;;;;;12.17;11.13;;;;;;;;;;5051329;28;20473;-77
2023/04/20 12:05:31;;;;;;;12.50;11.30;;;;;;;;;;5051566;28;20529;-77
2023/04/20 12:07:59;;;;;;;11.87;10.77;;;;;;;;;;5051540;28;20474;-77
2023/04/20 12:10:28;;;;;;;13.60;12.40;;;;;;;;;;5051356;28;20514;-76
2023/04/20 12:12:56;;;;;;;14.43;13.03;;;;;;;;;;5051219;28;20874;-77
2023/04/20 12:15:23;;;;;;;14.37;12.33;;;;;;;;;;5051447;28;20477;-78
2023/04/20 12:17:50;;;;;;;13.90;12.07;;;;;;;;;;5051608;28;20803;-77
2023/04/20 12:20:18;;;;;;;13.70;12.50;;;;;;;;;;5051192;28;20488;-76
2023/04/20 12:22:45;;;;;;;12.00;10.90;;;;;;;;;;5050979;28;20473;-77
2023/04/20 12:25:12;;;;;;;12.67;11.57;;;;;;;;;;5051696;28;20442;-77
2023/04/20 12:27:41;;;;;;;13.23;11.90;;;;;;;;;;5051433;28;20531;-76
2023/04/20 12:30:09;;;;;;;14.63;11.80;;;;;;;;;;5051706;28;20448;-76
2023/04/20 12:32:39;;;;;;;12.50;11.30;;;;;;;;;;5051433;28;20460;-77
2023/04/20 12:35:08;;;;;;;10.53;9.63;;;;;;;;;;5052106;28;20484;-76
2023/04/20 12:37:35;;;;;;;12.13;11.03;;;;;;;;;;5052736;28;20539;-77
2023/04/20 12:40:04;;;;;;;11.27;10.27;;;;;;;;;;5052885;28;20529;-79
2023/04/20 12:42:32;;;;;;;11.00;9.90;;;;;;;;;;5052861;28;20461;-82
2023/04/20 12:45:05;;;;;;;10.90;9.90;;;;;;;;;;5052516;28;20524;-77
2023/04/20 12:47:32;;;;;;;11.33;10.23;;;;;;;;;;5051939;28;20474;-76
2023/04/20 12:49:59;;;;;;;10.40;9.40;;;;;;;;;;5053005;28;20457;-77
2023/04/20 12:52:27;;;;;;;11.13;10.03;;;;;;;;;;5057230;28;20450;-77
2023/04/20 12:54:56;;;;;;;11.20;10.10;;;;;;;;;;5058493;28;20477;-77
2023/04/20 12:57:23;;;;;;;11.50;10.50;;;;;;;;;;5059315;28;20526;-77
2023/04/20 12:59:51;;;;;;;10.47;9.63;;;;;;;;;;5055539;28;20447;-78
2023/04/20 13:02:20;;;;;;;11.40;9.67;;;;;;;;;;5054190;28;20865;-77
2023/04/20 13:04:47;;;;;;;10.47;9.57;;;;;;;;;;5054932;28;20441;-76
2023/04/20 13:07:15;;;;;;;10.47;9.47;;;;;;;;;;5055193;28;20465;-77
2023/04/20 13:09:42;;;;;;;11.33;10.37;;;;;;;;;;5055300;28;20465;-79
2023/04/20 13:12:19;;;;;;;11.53;10.40;;;;;;;;;;5055423;28;20504;-76
2023/04/20 13:14:46;;;;;;;10.67;9.77;;;;;;;;;;5056073;28;20564;-77
2023/04/20 13:17:14;;;;;;;9.80;9.00;;;;;;;;;;5057530;28;20815;-78
2023/04/20 13:19:42;;;;;;;10.13;9.23;;;;;;;;;;5056699;28;20481;-76
2023/04/20 13:22:20;;;;;;;9.43;8.63;;;;;;;;;;5062326;28;20552;-77
2023/04/20 13:24:47;;;;;;;9.63;8.60;;;;;;;;;;5062237;28;20442;-78
2023/04/20 13:27:14;;;;;;;8.60;7.90;;;;;;;;;;5057823;28;20453;-77
2023/04/20 13:29:42;;;;;;;9.27;8.40;;;;;;;;;;5058049;28;20450;-77
2023/04/20 13:32:09;;;;;;;9.13;8.33;;;;;;;;;;5058848;28;20495;-79
2023/04/20 13:34:40;;;;;;;9.27;8.47;;;;;;;;;;5059390;28;20494;-76
2023/04/20 13:37:09;;;;;;;9.63;8.77;;;;;;;;;;5058559;28;20450;-77
2023/04/20 13:39:38;;;;;;;9.20;8.40;;;;;;;;;;5058808;28;20457;-78
2023/04/20 13:42:09;;;;;;;9.87;9.07;;;;;;;;;;5057957;28;20536;-77
2023/04/20 13:44:36;;;;;;;8.77;8.10;;;;;;;;;;5057182;28;20516;-78
2023/04/20 13:47:04;;;;;;;10.10;9.17;;;;;;;;;;5057990;28;20468;-76
2023/04/20 13:49:31;;;;;;;10.53;9.53;;;;;;;;;;5058098;28;20522;-79
2023/04/20 13:51:59;;;;;;;10.47;9.40;;;;;;;;;;5063342;28;20454;-78
2023/04/20 13:54:36;;;;;;;10.00;8.90;;;;;;;;;;5066856;28;20915;-78
2023/04/20 13:57:09;;;;;;;10.50;9.50;;;;;;;;;;5067530;28;20477;-77
2023/04/20 13:59:46;;;;;;;10.87;9.77;;;;;;;;;;5062023;28;20449;-77
2023/04/20 14:02:17;;;;;;;10.60;9.60;;;;;;;;;;5061926;28;20445;-78
2023/04/20 14:04:51;;;;;;;10.90;9.57;;;;;;;;;;5062986;28;20461;-78
2023/04/20 14:07:22;;;;;;;11.00;10.10;;;;;;;;;;5061644;28;20469;-76
2023/04/20 14:09:55;;;;;;;9.93;8.93;;;;;;;;;;5061767;28;20461;-77
2023/04/20 14:12:25;;;;;;;11.10;9.77;;;;;;;;;;5062645;28;20556;-77
2023/04/20 14:14:55;;;;;;;11.20;10.27;;;;;;;;;;5063051;28;20477;-77
2023/04/20 14:17:35;;;;;;;10.67;9.07;;;;;;;;;;5061258;28;20469;-79
2023/04/20 14:20:07;;;;;;;10.37;9.37;;;;;;;;;;5061079;28;20452;-77
2023/04/20 14:22:35;;;;;;;10.37;9.37;;;;;;;;;;5060804;28;20515;-78
2023/04/20 14:25:05;;;;;;;10.70;9.80;;;;;;;;;;5063950;28;20450;-77
2023/04/20 14:27:34;;;;;;;11.40;10.10;;;;;;;;;;5063027;28;20481;-78
2023/04/20 14:30:02;;;;;;;10.47;9.50;;;;;;;;;;5058115;28;20480;-79
2023/04/20 14:32:30;;;;;;;10.17;9.17;;;;;;;;;;5058347;28;20454;-78
2023/04/20 14:34:58;;;;;;;9.97;9.13;;;;;;;;;;5058726;28;20535;-77
2023/04/20 14:37:29;;;;;;;10.20;9.20;;;;;;;;;;5060389;28;20470;-78